Time;durP1;ratioP1;P1;durP2;ratioP2;P2;SDS_P1;SDS_P2;PMS_P1;PMS_P2;Temp;Humidity;BMP_temperature;BMP_pressure;BME280_temperature;BME280_humidity;BME280_pressure;Samples;Min_cycle;Max_cycle;Signal;HPM_P1;HPM_P2
2021/10/15 00:00:37;;;;;;;8.50;2.40;;;;;;;;;;5065855;28;20678;-70
2021/10/15 00:03:02;;;;;;;9.13;2.70;;;;;;;;;;5059484;28;20027;-69
2021/10/15 00:05:30;;;;;;;6.10;1.90;;;;;;;;;;5070765;28;20267;-70
2021/10/15 00:07:56;;;;;;;7.38;2.28;;;;;;;;;;5070790;28;20025;-70
2021/10/15 00:10:21;;;;;;;8.18;2.58;;;;;;;;;;5070639;28;20025;-69
2021/10/15 00:12:46;;;;;;;13.13;2.58;;;;;;;;;;5070631;28;20483;-69
2021/10/15 00:15:12;;;;;;;9.60;2.40;;;;;;;;;;5052810;28;20036;-70
2021/10/15 00:17:37;;;;;;;11.65;2.50;;;;;;;;;;5070859;28;20405;-70
2021/10/15 00:20:03;;;;;;;8.10;2.27;;;;;;;;;;5065358;28;20021;-70
2021/10/15 00:22:28;;;;;;;7.07;2.53;;;;;;;;;;5064066;28;20351;-70
2021/10/15 00:24:53;;;;;;;6.13;2.57;;;;;;;;;;5064027;28;20017;-69
2021/10/15 00:27:18;;;;;;;8.27;2.70;;;;;;;;;;5077736;22;20309;-89
2021/10/15 00:29:44;;;;;;;36.58;3.75;;;;;;;;;;5046881;28;20275;-89
2021/10/15 00:32:11;;;;;;;10.77;2.00;;;;;;;;;;5052391;28;20020;-88
2021/10/15 00:34:39;;;;;;;7.45;2.33;;;;;;;;;;5052326;28;20070;-89
2021/10/15 00:37:04;;;;;;;9.90;2.75;;;;;;;;;;5070702;28;20112;-89
2021/10/15 00:39:32;;;;;;;6.57;2.20;;;;;;;;;;5052510;28;20107;-89
2021/10/15 00:41:57;;;;;;;5.40;2.60;;;;;;;;;;5069821;28;20082;-89
2021/10/15 00:44:22;;;;;;;9.00;2.65;;;;;;;;;;5052678;28;20025;-89
2021/10/15 00:46:57;;;;;;;11.05;3.28;;;;;;;;;;5069567;28;20488;-88
2021/10/15 00:49:25;;;;;;;9.45;2.97;;;;;;;;;;5051798;28;20066;-88
2021/10/15 00:51:50;;;;;;;9.77;2.85;;;;;;;;;;5052374;28;20025;-89
2021/10/15 00:54:16;;;;;;;6.88;2.30;;;;;;;;;;5052436;28;20123;-89
2021/10/15 00:56:42;;;;;;;9.13;2.78;;;;;;;;;;5051432;28;20024;-88
2021/10/15 00:59:07;;;;;;;5.97;2.75;;;;;;;;;;5050839;28;20510;-89
2021/10/15 01:01:32;;;;;;;15.43;3.50;;;;;;;;;;5052398;28;20138;-88
2021/10/15 01:04:01;;;;;;;9.65;2.78;;;;;;;;;;5069892;28;20484;-89
2021/10/15 01:06:35;;;;;;;17.27;2.72;;;;;;;;;;5070958;28;20020;-89
2021/10/15 01:09:04;;;;;;;12.65;2.35;;;;;;;;;;5073602;28;20013;-88
2021/10/15 01:11:29;;;;;;;10.38;3.10;;;;;;;;;;5052751;28;20028;-88
2021/10/15 01:13:55;;;;;;;13.98;3.40;;;;;;;;;;5064878;22;20044;-68
2021/10/15 01:16:24;;;;;;;8.55;2.28;;;;;;;;;;5066253;28;20016;-65
2021/10/15 01:18:49;;;;;;;10.75;2.60;;;;;;;;;;5071302;28;20008;-66
2021/10/15 01:21:15;;;;;;;11.87;3.13;;;;;;;;;;5070956;28;20380;-65
2021/10/15 01:23:40;;;;;;;9.65;2.70;;;;;;;;;;5071606;28;20271;-64
2021/10/15 01:26:06;;;;;;;11.23;2.30;;;;;;;;;;5070145;28;20434;-64
2021/10/15 01:28:32;;;;;;;7.88;2.88;;;;;;;;;;5070567;28;20025;-63
2021/10/15 01:30:57;;;;;;;11.63;3.58;;;;;;;;;;5070591;28;20047;-63
2021/10/15 01:33:22;;;;;;;10.32;3.03;;;;;;;;;;5070090;28;20077;-64
2021/10/15 01:35:48;;;;;;;6.65;2.83;;;;;;;;;;5070855;28;20015;-64
2021/10/15 01:38:14;;;;;;;13.40;3.55;;;;;;;;;;5070691;28;20104;-64
2021/10/15 01:40:39;;;;;;;8.27;2.78;;;;;;;;;;5070575;28;20019;-63
2021/10/15 01:43:05;;;;;;;7.10;2.80;;;;;;;;;;5070082;28;20019;-65
2021/10/15 01:45:30;;;;;;;9.98;2.60;;;;;;;;;;5069934;28;20021;-63
2021/10/15 01:47:56;;;;;;;7.82;2.50;;;;;;;;;;5070480;28;20048;-62
2021/10/15 01:50:22;;;;;;;14.52;3.35;;;;;;;;;;5070189;28;20020;-64
2021/10/15 01:52:48;;;;;;;13.32;3.08;;;;;;;;;;5070165;28;20020;-63
2021/10/15 01:55:14;;;;;;;9.88;2.78;;;;;;;;;;5070006;28;20020;-64
2021/10/15 01:57:39;;;;;;;11.90;3.17;;;;;;;;;;5070032;28;20473;-63
2021/10/15 02:00:06;;;;;;;11.27;4.13;;;;;;;;;;5069760;28;20656;-65
2021/10/15 02:02:31;;;;;;;12.32;3.50;;;;;;;;;;5069932;28;20115;-62
2021/10/15 02:04:56;;;;;;;8.97;2.60;;;;;;;;;;5070989;28;20134;-64
2021/10/15 02:07:21;;;;;;;11.23;3.25;;;;;;;;;;5069461;28;20251;-63
2021/10/15 02:09:46;;;;;;;4.97;2.67;;;;;;;;;;5070174;28;20303;-64
2021/10/15 02:12:12;;;;;;;7.70;2.95;;;;;;;;;;5069810;28;20277;-64
2021/10/15 02:14:37;;;;;;;7.37;3.27;;;;;;;;;;5069794;28;20029;-64
2021/10/15 02:17:02;;;;;;;11.23;3.47;;;;;;;;;;5070096;28;20664;-63
2021/10/15 02:19:28;;;;;;;11.80;4.63;;;;;;;;;;5069927;28;20032;-64
2021/10/15 02:21:53;;;;;;;13.50;3.25;;;;;;;;;;5069650;28;20100;-62
2021/10/15 02:24:18;;;;;;;6.15;3.10;;;;;;;;;;5069631;28;20434;-64
2021/10/15 02:26:43;;;;;;;11.02;3.95;;;;;;;;;;5069847;28;20039;-63
2021/10/15 02:29:09;;;;;;;14.33;3.63;;;;;;;;;;5070210;28;20035;-63
2021/10/15 02:31:34;;;;;;;18.77;3.93;;;;;;;;;;5069919;28;20301;-63
2021/10/15 02:33:59;;;;;;;12.10;3.28;;;;;;;;;;5070121;28;20348;-63
2021/10/15 02:36:24;;;;;;;13.52;4.03;;;;;;;;;;5070239;28;20363;-63
2021/10/15 02:38:49;;;;;;;7.20;3.83;;;;;;;;;;5069660;28;20029;-63
2021/10/15 02:41:15;;;;;;;18.00;3.85;;;;;;;;;;5069665;28;20023;-67
2021/10/15 02:43:40;;;;;;;10.10;3.20;;;;;;;;;;5069450;28;20536;-63
2021/10/15 02:46:05;;;;;;;12.35;4.43;;;;;;;;;;5069524;28;20508;-63
2021/10/15 02:48:30;;;;;;;12.35;3.78;;;;;;;;;;5068098;28;20082;-63
2021/10/15 02:50:56;;;;;;;9.80;2.85;;;;;;;;;;5069993;28;20021;-63
2021/10/15 02:53:21;;;;;;;12.95;4.10;;;;;;;;;;5068895;28;20020;-64
2021/10/15 02:55:46;;;;;;;13.13;4.20;;;;;;;;;;5069628;28;20070;-65
2021/10/15 02:58:11;;;;;;;14.82;4.10;;;;;;;;;;5069346;28;20267;-64
2021/10/15 03:00:36;;;;;;;14.13;4.40;;;;;;;;;;5069751;28;20029;-63
2021/10/15 03:03:01;;;;;;;28.45;4.63;;;;;;;;;;5069242;28;20369;-64
2021/10/15 03:05:27;;;;;;;10.00;4.47;;;;;;;;;;5069442;28;20036;-63
2021/10/15 03:07:52;;;;;;;7.75;4.05;;;;;;;;;;5069425;28;20033;-64
2021/10/15 03:10:17;;;;;;;9.82;4.13;;;;;;;;;;5068278;28;20025;-65
2021/10/15 03:12:42;;;;;;;11.43;4.57;;;;;;;;;;5068739;28;20038;-63
2021/10/15 03:15:08;;;;;;;14.38;3.80;;;;;;;;;;5069569;28;20028;-65
2021/10/15 03:17:33;;;;;;;7.55;3.53;;;;;;;;;;5069625;28;20297;-63
2021/10/15 03:19:58;;;;;;;15.48;5.10;;;;;;;;;;5070685;28;20035;-64
2021/10/15 03:22:23;;;;;;;29.40;5.72;;;;;;;;;;5073474;28;20059;-63
2021/10/15 03:24:49;;;;;;;15.67;3.83;;;;;;;;;;5072778;28;20016;-63
2021/10/15 03:27:14;;;;;;;21.70;4.90;;;;;;;;;;5072814;28;20743;-64
2021/10/15 03:29:39;;;;;;;10.83;4.07;;;;;;;;;;5072700;28;20039;-63
2021/10/15 03:32:04;;;;;;;8.65;3.70;;;;;;;;;;5073279;28;20298;-63
2021/10/15 03:34:29;;;;;;;10.48;4.38;;;;;;;;;;5072054;28;20434;-63
2021/10/15 03:36:55;;;;;;;9.52;3.58;;;;;;;;;;5072949;28;20023;-64
2021/10/15 03:39:20;;;;;;;9.97;4.77;;;;;;;;;;5072064;28;20564;-63
2021/10/15 03:41:45;;;;;;;11.57;4.30;;;;;;;;;;5072324;28;20283;-64
2021/10/15 03:44:10;;;;;;;11.70;4.63;;;;;;;;;;5072748;28;20028;-64
2021/10/15 03:46:35;;;;;;;19.25;4.53;;;;;;;;;;5071789;28;20599;-63
2021/10/15 03:49:01;;;;;;;16.73;5.10;;;;;;;;;;5072494;28;20109;-64
2021/10/15 03:51:26;;;;;;;15.20;4.00;;;;;;;;;;5072218;28;20266;-64
2021/10/15 03:53:51;;;;;;;26.52;4.70;;;;;;;;;;5071576;28;20370;-65
2021/10/15 03:56:16;;;;;;;10.05;4.50;;;;;;;;;;5071960;28;20119;-63
2021/10/15 03:58:41;;;;;;;11.90;4.18;;;;;;;;;;5072798;28;20354;-64
2021/10/15 04:01:07;;;;;;;12.27;4.37;;;;;;;;;;5072714;28;20368;-64
2021/10/15 04:03:32;;;;;;;8.75;4.75;;;;;;;;;;5072082;28;20274;-64
2021/10/15 04:05:58;;;;;;;20.30;6.88;;;;;;;;;;5072986;28;20473;-64
2021/10/15 04:08:23;;;;;;;7.10;3.42;;;;;;;;;;5071354;28;20576;-64
2021/10/15 04:10:48;;;;;;;9.33;4.97;;;;;;;;;;5071419;28;20384;-65
2021/10/15 04:13:13;;;;;;;16.83;6.03;;;;;;;;;;5072283;28;20413;-63
2021/10/15 04:15:38;;;;;;;9.63;3.83;;;;;;;;;;5072127;28;20029;-64
2021/10/15 04:18:03;;;;;;;10.10;3.97;;;;;;;;;;5072273;28;20051;-63
2021/10/15 04:20:29;;;;;;;9.60;4.80;;;;;;;;;;5071872;28;20100;-65
2021/10/15 04:22:54;;;;;;;11.80;5.35;;;;;;;;;;5066372;28;20758;-64
2021/10/15 04:25:19;;;;;;;12.60;5.30;;;;;;;;;;5065767;28;20020;-65
2021/10/15 04:27:44;;;;;;;13.40;4.55;;;;;;;;;;5071477;28;20040;-64
2021/10/15 04:30:09;;;;;;;17.33;4.73;;;;;;;;;;5071810;28;20483;-65
2021/10/15 04:32:35;;;;;;;13.50;4.95;;;;;;;;;;5071493;28;20431;-64
2021/10/15 04:35:01;;;;;;;15.07;5.07;;;;;;;;;;5071962;28;20101;-65
2021/10/15 04:37:26;;;;;;;10.63;4.82;;;;;;;;;;5071276;28;20117;-64
2021/10/15 04:39:51;;;;;;;19.75;6.32;;;;;;;;;;5071335;28;20468;-64
2021/10/15 04:42:16;;;;;;;14.98;4.50;;;;;;;;;;5071282;28;20108;-63
2021/10/15 04:44:41;;;;;;;15.52;4.82;;;;;;;;;;5071239;28;20095;-63
2021/10/15 04:47:07;;;;;;;12.95;5.00;;;;;;;;;;5071141;28;20047;-63
2021/10/15 04:49:32;;;;;;;22.58;5.53;;;;;;;;;;5071557;28;20028;-63
2021/10/15 04:51:57;;;;;;;21.90;5.43;;;;;;;;;;5070951;28;20054;-63
2021/10/15 04:54:22;;;;;;;12.05;5.03;;;;;;;;;;5071404;28;20363;-64
2021/10/15 04:56:47;;;;;;;10.35;4.70;;;;;;;;;;5071883;28;20032;-66
2021/10/15 04:59:13;;;;;;;14.25;5.03;;;;;;;;;;5071130;28;20031;-63
2021/10/15 05:01:38;;;;;;;15.70;4.57;;;;;;;;;;5071361;28;20071;-63
2021/10/15 05:04:03;;;;;;;11.60;4.57;;;;;;;;;;5070442;28;20637;-64
2021/10/15 05:06:28;;;;;;;18.30;4.65;;;;;;;;;;5071221;28;20043;-64
2021/10/15 05:09:02;;;;;;;19.30;4.70;;;;;;;;;;5069851;28;20024;-64
2021/10/15 05:11:30;;;;;;;14.90;5.78;;;;;;;;;;5070191;28;20028;-64
2021/10/15 05:13:56;;;;;;;15.95;4.90;;;;;;;;;;5070993;28;20032;-66
2021/10/15 05:16:21;;;;;;;11.57;4.80;;;;;;;;;;5070316;28;20377;-65
2021/10/15 05:18:46;;;;;;;12.95;4.40;;;;;;;;;;5070712;28;20047;-64
2021/10/15 05:21:12;;;;;;;15.25;5.30;;;;;;;;;;5070283;28;20024;-64
2021/10/15 05:23:37;;;;;;;9.23;4.80;;;;;;;;;;5070976;28;20473;-64
2021/10/15 05:26:02;;;;;;;11.47;4.80;;;;;;;;;;5069846;28;20254;-64
2021/10/15 05:28:27;;;;;;;9.20;5.07;;;;;;;;;;5070904;28;20390;-63
2021/10/15 05:30:54;;;;;;;12.47;4.93;;;;;;;;;;5070322;28;20035;-65
2021/10/15 05:33:19;;;;;;;14.68;5.88;;;;;;;;;;5070752;28;20358;-65
2021/10/15 05:35:44;;;;;;;9.57;5.00;;;;;;;;;;5070544;28;20095;-63
2021/10/15 05:38:10;;;;;;;15.70;5.20;;;;;;;;;;5070464;28;20027;-63
2021/10/15 05:40:35;;;;;;;14.40;5.53;;;;;;;;;;5070493;28;20328;-63
2021/10/15 05:43:00;;;;;;;10.93;4.65;;;;;;;;;;5056527;28;20025;-63
2021/10/15 05:45:26;;;;;;;13.23;4.73;;;;;;;;;;5052338;28;20021;-65
2021/10/15 05:47:51;;;;;;;12.85;5.50;;;;;;;;;;5070357;28;20661;-64
2021/10/15 05:50:16;;;;;;;17.05;5.55;;;;;;;;;;5070240;28;20016;-64
2021/10/15 05:52:44;;;;;;;12.00;4.95;;;;;;;;;;5070246;28;20473;-65
2021/10/15 06:00:21;;;;;;;16.90;5.20;;;;;;;;;;5070046;28;20534;-64
2021/10/15 06:02:47;;;;;;;14.85;4.70;;;;;;;;;;5069918;28;20096;-63
2021/10/15 06:15:50;;;;;;;10.10;4.20;;;;;;;;;;5059983;28;20130;-64
2021/10/15 06:18:18;;;;;;;9.85;4.90;;;;;;;;;;5069775;28;20454;-64
2021/10/15 06:20:44;;;;;;;12.82;5.75;;;;;;;;;;5070456;28;20535;-64
2021/10/15 06:23:09;;;;;;;14.98;5.57;;;;;;;;;;5069482;28;20104;-63
2021/10/15 06:25:34;;;;;;;16.10;5.95;;;;;;;;;;5070020;28;20074;-63
2021/10/15 06:28:01;;;;;;;24.05;7.35;;;;;;;;;;5069570;28;20032;-63
2021/10/15 06:30:26;;;;;;;13.93;5.47;;;;;;;;;;5070193;28;20051;-64
2021/10/15 06:32:52;;;;;;;15.50;5.55;;;;;;;;;;5069938;28;20430;-64
2021/10/15 06:35:17;;;;;;;12.20;5.22;;;;;;;;;;5069793;28;20369;-64
2021/10/15 06:37:42;;;;;;;13.67;4.63;;;;;;;;;;5068688;28;20465;-63
2021/10/15 06:40:08;;;;;;;16.37;4.77;;;;;;;;;;5069274;28;20353;-63
2021/10/15 06:42:33;;;;;;;18.73;5.85;;;;;;;;;;5060130;28;20278;-65
2021/10/15 06:44:59;;;;;;;15.38;4.55;;;;;;;;;;5060551;28;20017;-64
2021/10/15 06:47:26;;;;;;;9.57;5.75;;;;;;;;;;5062148;28;20111;-64
2021/10/15 06:49:52;;;;;;;18.85;5.80;;;;;;;;;;5068003;28;20030;-64
2021/10/15 06:52:17;;;;;;;12.15;4.82;;;;;;;;;;5066646;28;20017;-64
2021/10/15 06:54:42;;;;;;;15.75;6.55;;;;;;;;;;5068155;28;20441;-64
2021/10/15 06:57:07;;;;;;;15.40;5.50;;;;;;;;;;5070794;28;20032;-64
2021/10/15 06:59:34;;;;;;;13.40;4.83;;;;;;;;;;5071443;28;20032;-64
2021/10/15 07:01:59;;;;;;;14.77;5.60;;;;;;;;;;5071361;28;20314;-63
2021/10/15 07:04:24;;;;;;;22.05;4.93;;;;;;;;;;5070912;28;20023;-65
2021/10/15 07:06:49;;;;;;;13.60;5.87;;;;;;;;;;5065588;28;20420;-64
2021/10/15 07:09:14;;;;;;;21.43;6.27;;;;;;;;;;5068289;28;20285;-65
2021/10/15 07:11:40;;;;;;;12.75;5.00;;;;;;;;;;5071538;28;20270;-63
2021/10/15 07:14:05;;;;;;;15.85;4.97;;;;;;;;;;5067642;28;20531;-64
2021/10/15 07:16:31;;;;;;;11.75;4.90;;;;;;;;;;5061562;28;20024;-64
2021/10/15 07:18:56;;;;;;;13.68;4.90;;;;;;;;;;5072235;28;20020;-64
2021/10/15 07:21:21;;;;;;;20.42;5.82;;;;;;;;;;5073383;28;20021;-64
2021/10/15 07:23:46;;;;;;;18.55;5.50;;;;;;;;;;5071562;28;20029;-64
2021/10/15 07:26:11;;;;;;;23.08;4.85;;;;;;;;;;5061732;28;20023;-64
2021/10/15 07:28:37;;;;;;;18.17;5.13;;;;;;;;;;5072999;28;20032;-66
2021/10/15 07:31:02;;;;;;;19.42;5.75;;;;;;;;;;5072542;28;20532;-66
2021/10/15 07:33:27;;;;;;;14.32;5.00;;;;;;;;;;5071664;28;20191;-66
2021/10/15 07:35:53;;;;;;;21.38;5.57;;;;;;;;;;5072622;28;20029;-66
2021/10/15 07:38:18;;;;;;;15.80;4.60;;;;;;;;;;5072888;28;20389;-65
2021/10/15 07:40:43;;;;;;;16.00;5.38;;;;;;;;;;5072511;28;20029;-67
2021/10/15 07:43:08;;;;;;;19.00;6.22;;;;;;;;;;5072802;28;20029;-65
2021/10/15 07:45:34;;;;;;;12.38;5.07;;;;;;;;;;5073348;28;20364;-66
2021/10/15 07:47:59;;;;;;;10.25;5.20;;;;;;;;;;5071047;28;20401;-66
2021/10/15 07:50:24;;;;;;;17.58;7.05;;;;;;;;;;5072706;28;20497;-65
2021/10/15 07:52:50;;;;;;;11.88;4.45;;;;;;;;;;5072477;28;20457;-65
2021/10/15 07:55:15;;;;;;;13.65;5.32;;;;;;;;;;5073425;28;20027;-66
2021/10/15 07:57:40;;;;;;;21.23;5.28;;;;;;;;;;5069346;28;20025;-66
2021/10/15 08:00:07;;;;;;;18.92;6.53;;;;;;;;;;5063473;28;20469;-65
2021/10/15 08:02:32;;;;;;;15.02;5.35;;;;;;;;;;5072594;28;20047;-65
2021/10/15 08:04:57;;;;;;;20.10;5.75;;;;;;;;;;5072348;28;20457;-65
2021/10/15 08:07:23;;;;;;;26.50;6.20;;;;;;;;;;5073217;28;20027;-64
2021/10/15 08:09:48;;;;;;;15.02;5.03;;;;;;;;;;5072969;28;20303;-66
2021/10/15 08:12:13;;;;;;;21.40;4.95;;;;;;;;;;5072405;28;20024;-64
2021/10/15 08:14:38;;;;;;;10.15;4.55;;;;;;;;;;5072904;28;20111;-66
2021/10/15 08:17:04;;;;;;;16.70;4.93;;;;;;;;;;5072438;28;20028;-63
2021/10/15 08:19:29;;;;;;;16.95;6.40;;;;;;;;;;5072564;28;20619;-64
2021/10/15 08:21:54;;;;;;;11.70;5.88;;;;;;;;;;5072012;28;20482;-64
2021/10/15 08:24:19;;;;;;;16.67;5.37;;;;;;;;;;5072343;28;20081;-64
2021/10/15 08:26:44;;;;;;;13.70;5.07;;;;;;;;;;5072464;28;20263;-65
2021/10/15 08:29:10;;;;;;;14.10;4.83;;;;;;;;;;5072211;28;20028;-67
2021/10/15 08:31:35;;;;;;;22.23;4.78;;;;;;;;;;5071852;28;20317;-64
2021/10/15 08:34:07;;;;;;;22.00;6.00;;;;;;;;;;5066167;28;20025;-65
2021/10/15 08:36:32;;;;;;;17.67;5.78;;;;;;;;;;5052599;28;20381;-65
2021/10/15 08:38:57;;;;;;;19.13;5.33;;;;;;;;;;5063795;28;20030;-64
2021/10/15 08:41:25;;;;;;;17.00;5.68;;;;;;;;;;5071270;28;20289;-64
2021/10/15 08:43:52;;;;;;;11.80;4.88;;;;;;;;;;5071260;28;20024;-65
2021/10/15 08:46:17;;;;;;;19.90;5.03;;;;;;;;;;5072007;28;20017;-66
2021/10/15 08:48:42;;;;;;;16.35;6.65;;;;;;;;;;5071934;28;20074;-67
2021/10/15 08:51:08;;;;;;;19.73;5.50;;;;;;;;;;5071849;28;20113;-66
2021/10/15 08:53:45;;;;;;;24.33;4.97;;;;;;;;;;5072047;28;20251;-67
2021/10/15 08:56:11;;;;;;;9.60;5.45;;;;;;;;;;5071931;28;20047;-67
2021/10/15 08:58:39;;;;;;;12.05;5.88;;;;;;;;;;5071447;28;20477;-67
2021/10/15 09:01:05;;;;;;;12.43;4.93;;;;;;;;;;5071585;28;20473;-66
2021/10/15 09:03:31;;;;;;;18.80;6.40;;;;;;;;;;5069243;28;20029;-67
2021/10/15 09:06:00;;;;;;;15.00;5.43;;;;;;;;;;5058979;28;20267;-66
2021/10/15 09:08:27;;;;;;;19.30;5.70;;;;;;;;;;5065875;28;20048;-65
2021/10/15 09:10:52;;;;;;;15.07;4.85;;;;;;;;;;5061410;28;20016;-66
2021/10/15 09:13:20;;;;;;;13.40;5.70;;;;;;;;;;5053288;28;20047;-65
2021/10/15 09:15:46;;;;;;;13.35;5.53;;;;;;;;;;5053413;28;20033;-66
2021/10/15 09:18:30;;;;;;;16.73;5.38;;;;;;;;;;5070112;28;20035;-67
2021/10/15 09:20:56;;;;;;;12.77;4.85;;;;;;;;;;5060072;28;20029;-66
2021/10/15 09:23:41;;;;;;;13.77;5.95;;;;;;;;;;5056052;28;20025;-65
2021/10/15 09:26:07;;;;;;;15.93;6.72;;;;;;;;;;5069769;28;20531;-65
2021/10/15 09:28:38;;;;;;;11.93;5.82;;;;;;;;;;5071133;28;20020;-64
2021/10/15 09:31:03;;;;;;;16.55;6.65;;;;;;;;;;5070954;28;20456;-66
2021/10/15 09:33:29;;;;;;;17.98;6.75;;;;;;;;;;5065259;28;20047;-65
2021/10/15 09:36:03;;;;;;;17.00;6.00;;;;;;;;;;5070391;28;20017;-64
2021/10/15 09:38:28;;;;;;;28.17;7.55;;;;;;;;;;5070531;28;20039;-64
2021/10/15 09:40:53;;;;;;;23.00;7.40;;;;;;;;;;5070451;28;20396;-66
2021/10/15 09:43:19;;;;;;;21.27;8.15;;;;;;;;;;5070847;28;20258;-64
2021/10/15 09:45:46;;;;;;;21.90;7.78;;;;;;;;;;5071048;28;20096;-66
2021/10/15 09:48:27;;;;;;;19.38;8.40;;;;;;;;;;5070764;28;20557;-64
2021/10/15 09:51:12;;;;;;;19.55;8.50;;;;;;;;;;5070841;28;20082;-66
2021/10/15 09:53:38;;;;;;;21.40;9.63;;;;;;;;;;5067694;28;20028;-68
2021/10/15 09:56:04;;;;;;;22.20;10.10;;;;;;;;;;5069777;28;20113;-67
2021/10/15 09:58:29;;;;;;;30.33;10.85;;;;;;;;;;5070626;28;20480;-67
2021/10/15 10:00:54;;;;;;;31.15;11.40;;;;;;;;;;5069980;28;20024;-68
2021/10/15 10:03:21;;;;;;;23.92;11.23;;;;;;;;;;5070865;28;20113;-67
2021/10/15 10:05:47;;;;;;;34.78;12.38;;;;;;;;;;5070478;28;20035;-67
2021/10/15 10:08:12;;;;;;;22.75;11.75;;;;;;;;;;5070475;28;20020;-68
2021/10/15 10:10:38;;;;;;;30.50;12.05;;;;;;;;;;5069988;28;20543;-68
2021/10/15 10:13:04;;;;;;;24.10;13.25;;;;;;;;;;5051027;28;20485;-67
2021/10/15 10:15:31;;;;;;;36.65;13.15;;;;;;;;;;5050507;28;20066;-67
2021/10/15 10:18:12;;;;;;;36.47;13.60;;;;;;;;;;5050190;28;20016;-68
2021/10/15 10:20:40;;;;;;;28.40;12.85;;;;;;;;;;5050565;28;20052;-67
2021/10/15 10:23:24;;;;;;;39.03;16.40;;;;;;;;;;5067598;28;20050;-67
2021/10/15 10:25:54;;;;;;;31.33;14.60;;;;;;;;;;5069154;28;20021;-67
2021/10/15 10:28:21;;;;;;;34.42;15.18;;;;;;;;;;5050006;28;20021;-67
2021/10/15 10:30:55;;;;;;;39.65;15.63;;;;;;;;;;5050531;28;20028;-67
2021/10/15 10:33:21;;;;;;;36.95;15.60;;;;;;;;;;5066542;28;20036;-66
2021/10/15 10:35:47;;;;;;;27.05;12.88;;;;;;;;;;5065717;28;20024;-66
2021/10/15 10:38:18;;;;;;;30.95;13.10;;;;;;;;;;5053115;28;20025;-66
2021/10/15 10:41:16;;;;;;;34.72;16.08;;;;;;;;;;5069956;28;20029;-66
2021/10/15 10:43:44;;;;;;;30.73;13.73;;;;;;;;;;5010088;28;20029;-66
2021/10/15 10:46:12;;;;;;;22.45;12.35;;;;;;;;;;5049916;28;20043;-66
2021/10/15 10:48:49;;;;;;;29.25;13.60;;;;;;;;;;5059597;28;20021;-66
2021/10/15 10:51:28;;;;;;;35.95;14.77;;;;;;;;;;5070134;28;20075;-66
2021/10/15 10:53:59;;;;;;;25.65;12.75;;;;;;;;;;5069333;28;20028;-66
2021/10/15 10:56:39;;;;;;;19.88;11.23;;;;;;;;;;5069313;28;20046;-66
2021/10/15 10:59:20;;;;;;;29.27;11.60;;;;;;;;;;5069156;28;20031;-66
2021/10/15 11:01:48;;;;;;;25.00;11.27;;;;;;;;;;5069621;28;20396;-66
2021/10/15 11:04:25;;;;;;;22.00;10.88;;;;;;;;;;5070224;28;20461;-67
2021/10/15 11:06:59;;;;;;;22.65;11.38;;;;;;;;;;5069693;28;20040;-66
2021/10/15 11:09:32;;;;;;;18.25;10.82;;;;;;;;;;5069807;28;20203;-66
2021/10/15 11:11:57;;;;;;;24.80;11.45;;;;;;;;;;5051508;28;20025;-65
2021/10/15 11:14:24;;;;;;;22.40;10.38;;;;;;;;;;5069717;28;20035;-67
2021/10/15 11:16:49;;;;;;;26.98;12.48;;;;;;;;;;5056947;28;20033;-66
2021/10/15 11:19:19;;;;;;;28.35;12.70;;;;;;;;;;5070030;28;20488;-67
2021/10/15 11:21:44;;;;;;;27.57;11.70;;;;;;;;;;5065171;28;20512;-65
2021/10/15 11:24:11;;;;;;;21.15;11.30;;;;;;;;;;5052556;28;20020;-66
2021/10/15 11:26:36;;;;;;;17.33;8.98;;;;;;;;;;5069818;28;20505;-65
2021/10/15 11:29:01;;;;;;;17.20;9.27;;;;;;;;;;5069860;28;20042;-65
2021/10/15 11:31:26;;;;;;;18.63;10.15;;;;;;;;;;5069483;28;20262;-65
2021/10/15 11:33:51;;;;;;;17.17;9.93;;;;;;;;;;5069211;28;20024;-68
2021/10/15 11:36:19;;;;;;;18.87;10.53;;;;;;;;;;5051832;28;20027;-65
2021/10/15 11:38:44;;;;;;;17.85;11.50;;;;;;;;;;5069251;28;20312;-65
2021/10/15 11:41:09;;;;;;;18.08;11.02;;;;;;;;;;5071486;28;20020;-65
2021/10/15 11:43:44;;;;;;;23.30;10.90;;;;;;;;;;5073083;28;20028;-65
2021/10/15 11:46:14;;;;;;;18.50;10.43;;;;;;;;;;5072536;28;20388;-65
2021/10/15 11:48:45;;;;;;;25.40;11.00;;;;;;;;;;5072665;28;20095;-65
2021/10/15 11:51:20;;;;;;;20.02;9.35;;;;;;;;;;5073393;28;20021;-66
2021/10/15 11:53:47;;;;;;;12.18;7.38;;;;;;;;;;5072069;28;20035;-65
2021/10/15 11:56:14;;;;;;;10.07;6.63;;;;;;;;;;5072008;28;20512;-67
2021/10/15 11:58:41;;;;;;;8.93;4.78;;;;;;;;;;5072559;28;20078;-66
2021/10/15 12:01:16;;;;;;;14.68;4.75;;;;;;;;;;5072454;28;20477;-64
2021/10/15 12:03:51;;;;;;;9.73;4.30;;;;;;;;;;5072240;28;20025;-66
2021/10/15 12:06:19;;;;;;;4.80;2.28;;;;;;;;;;5073170;28;20021;-64
2021/10/15 12:08:46;;;;;;;8.25;2.20;;;;;;;;;;5073080;28;20052;-65
2021/10/15 12:11:22;;;;;;;5.10;2.70;;;;;;;;;;5072956;28;20013;-64
2021/10/15 12:13:47;;;;;;;10.43;2.72;;;;;;;;;;5070389;28;20021;-66
2021/10/15 12:16:20;;;;;;;6.10;2.17;;;;;;;;;;5072481;28;20031;-65
2021/10/15 12:18:45;;;;;;;8.70;2.42;;;;;;;;;;5072385;28;20021;-64
2021/10/15 12:21:11;;;;;;;6.95;2.13;;;;;;;;;;5072629;28;20358;-64
2021/10/15 12:23:52;;;;;;;6.20;2.88;;;;;;;;;;5065555;28;20389;-67
2021/10/15 12:26:18;;;;;;;11.55;2.55;;;;;;;;;;5070082;28;20499;-64
2021/10/15 12:28:43;;;;;;;5.70;1.45;;;;;;;;;;5066985;28;20469;-64
2021/10/15 12:31:22;;;;;;;6.43;1.50;;;;;;;;;;5066270;28;20065;-64
2021/10/15 12:34:06;;;;;;;16.33;2.30;;;;;;;;;;5069866;28;20032;-65
2021/10/15 12:36:31;;;;;;;5.18;1.27;;;;;;;;;;5061555;28;20047;-64
2021/10/15 12:39:15;;;;;;;4.68;1.20;;;;;;;;;;5070973;28;20028;-64
2021/10/15 12:41:41;;;;;;;11.68;1.60;;;;;;;;;;5071908;28;20357;-64
2021/10/15 12:44:25;;;;;;;8.27;1.63;;;;;;;;;;5064581;28;20047;-63
2021/10/15 12:46:53;;;;;;;10.50;1.38;;;;;;;;;;5062925;28;20060;-65
2021/10/15 12:49:19;;;;;;;4.28;1.27;;;;;;;;;;5071896;28;20020;-64
2021/10/15 12:51:44;;;;;;;11.55;1.83;;;;;;;;;;5071481;28;20499;-65
2021/10/15 12:54:11;;;;;;;6.80;0.90;;;;;;;;;;5071170;28;20037;-65
2021/10/15 12:56:41;;;;;;;10.93;1.77;;;;;;;;;;5069959;28;20024;-65
2021/10/15 12:59:16;;;;;;;3.97;1.90;;;;;;;;;;5071402;28;20021;-66
2021/10/15 13:01:43;;;;;;;4.32;1.15;;;;;;;;;;5070744;28;20050;-66
2021/10/15 13:04:08;;;;;;;5.05;1.08;;;;;;;;;;5068136;28;20387;-66
2021/10/15 13:06:33;;;;;;;6.75;1.33;;;;;;;;;;5071173;28;20025;-65
2021/10/15 13:08:59;;;;;;;7.70;1.20;;;;;;;;;;5075127;28;20016;-64
2021/10/15 13:11:25;;;;;;;4.15;1.25;;;;;;;;;;5071113;28;20016;-65
2021/10/15 13:13:52;;;;;;;5.07;0.95;;;;;;;;;;5071072;28;20020;-64
2021/10/15 13:16:18;;;;;;;4.65;1.38;;;;;;;;;;5062947;28;20073;-67
2021/10/15 13:18:44;;;;;;;8.20;1.15;;;;;;;;;;5070135;28;20028;-66
2021/10/15 13:21:09;;;;;;;10.20;2.22;;;;;;;;;;5071353;28;20411;-64
2021/10/15 13:23:34;;;;;;;5.22;1.08;;;;;;;;;;5071132;28;20023;-65
2021/10/15 13:26:00;;;;;;;9.80;0.98;;;;;;;;;;5071406;28;20040;-65
2021/10/15 13:28:25;;;;;;;9.85;1.33;;;;;;;;;;5071032;28;20534;-65
2021/10/15 13:30:51;;;;;;;8.10;1.20;;;;;;;;;;5070033;28;20116;-65
2021/10/15 13:33:18;;;;;;;4.95;1.48;;;;;;;;;;5070710;28;20254;-64
2021/10/15 13:35:46;;;;;;;10.90;1.67;;;;;;;;;;5069161;28;20559;-66
2021/10/15 13:38:14;;;;;;;8.30;1.40;;;;;;;;;;5077390;28;20020;-65
2021/10/15 13:41:15;;;;;;;5.07;1.30;;;;;;;;;;5076016;28;20051;-66
2021/10/15 13:51:26;;;;;;;9.40;1.15;;;;;;;;;;5079737;28;20527;-66
2021/10/15 13:53:52;;;;;;;5.53;1.30;;;;;;;;;;5078017;28;20028;-65
2021/10/15 13:56:18;;;;;;;4.03;1.10;;;;;;;;;;5078723;28;20035;-66
2021/10/15 13:58:48;;;;;;;6.60;1.45;;;;;;;;;;5083921;28;20024;-65
2021/10/15 14:01:32;;;;;;;4.63;1.23;;;;;;;;;;5073227;28;20048;-65
2021/10/15 14:06:26;;;;;;;13.18;1.60;;;;;;;;;;5065215;28;20067;-67
2021/10/15 14:08:51;;;;;;;10.13;1.40;;;;;;;;;;5069178;28;20481;-65
2021/10/15 14:11:19;;;;;;;7.00;1.25;;;;;;;;;;5070082;28;20491;-66
2021/10/15 14:13:45;;;;;;;9.80;1.17;;;;;;;;;;5070106;28;20028;-65
2021/10/15 14:16:13;;;;;;;5.82;1.27;;;;;;;;;;5070094;28;20024;-65
2021/10/15 14:18:38;;;;;;;5.20;0.88;;;;;;;;;;5070236;28;20021;-65
2021/10/15 14:21:03;;;;;;;7.33;1.10;;;;;;;;;;5070052;28;20047;-66
2021/10/15 14:23:28;;;;;;;7.78;1.40;;;;;;;;;;5069535;28;20325;-66
2021/10/15 14:25:54;;;;;;;7.43;1.40;;;;;;;;;;5069719;28;20020;-66
2021/10/15 14:28:19;;;;;;;8.00;0.98;;;;;;;;;;5069552;28;20275;-66
2021/10/15 14:30:44;;;;;;;7.10;1.25;;;;;;;;;;5070321;28;20039;-65
2021/10/15 14:33:10;;;;;;;11.40;1.63;;;;;;;;;;5070079;28;20381;-66
2021/10/15 14:35:36;;;;;;;9.25;1.55;;;;;;;;;;5070194;28;20023;-65
2021/10/15 14:38:01;;;;;;;9.73;2.17;;;;;;;;;;5069229;28;20017;-66
2021/10/15 14:40:27;;;;;;;12.95;1.42;;;;;;;;;;5066808;28;20028;-66
2021/10/15 14:42:52;;;;;;;7.10;1.43;;;;;;;;;;5069502;28;20024;-66
2021/10/15 14:45:17;;;;;;;10.67;2.53;;;;;;;;;;5069101;28;20684;-65
2021/10/15 14:47:42;;;;;;;5.50;1.10;;;;;;;;;;5069532;28;20277;-65
2021/10/15 14:50:08;;;;;;;5.90;1.42;;;;;;;;;;5070261;28;20267;-65
2021/10/15 14:52:33;;;;;;;9.43;2.00;;;;;;;;;;5070089;28;20028;-67
2021/10/15 14:54:58;;;;;;;11.23;3.30;;;;;;;;;;5069466;28;20047;-65
2021/10/15 14:57:24;;;;;;;12.05;1.48;;;;;;;;;;5069909;28;20267;-66